Millhaven, Canada
Current Conditions -  °F | °C
As of 11:00 PM on Thursday 30 Oct 2014 (Local Time) from CYGK Reporting Station
Broken Clouds Broken Clouds  
Wind Chill: 32°   Ceiling: 17000
Heat Index: 37°   Visibility: 15mi
Dew Point: 32°   Wind: 7mph
Humidity: 81%   Direction: 350°N
Pressure: 30.02"   Gusts: NA
Location:  44.2°N, 76.75°W
Report Text: CYGK 310300Z 35006KT 15SM FEW130 BKN170 BKN250 03/00 A3002 RMK AC2AC3CI2 LAST OBS/NEXT 311000 UTC SLP169
Loading
Personal Weather Stations






























Interactive Weather Map
Tropical Storm Tracking
New forecast layout! Learn more

10-Day Weather Forecast

Advertisements
Track Severe Weather on mobile